EGCC/MAN METAR and TAF weather

Enter ICAO airport designator
Station Type Date Time Source
EGCC METAR 2018/04/21 11:20 UTC NOAA

EGCC 211120Z AUTO 16006KT 110V230 9999 NCD 19/10 Q1019


Station Type Date Time Source
EGCC Decoded METAR 2018/04/21 11:20 UTC NOAA

Manchester Airport, United Kingdom (EGCC) 53-21N 002-17W 0M
Apr 21, 2018 - 07:20 AM EDT / 2018.04.21 1120 UTC
Wind: from the SSE (160 degrees) at 7 MPH (6 KT) (direction variable):0
Visibility: greater than 7 mile(s):0
Temperature: 66 F (19 C)
Dew Point: 50 F (10 C)
Relative Humidity: 55%
Pressure (altimeter): 30.09 in. Hg (1019 hPa)
ob: EGCC 211120Z AUTO 16006KT 110V230 9999 NCD 19/10 Q1019
cycle: 11

Station Type Date Time Source
EGCC TAF 2018/04/21 12:15 UTC NOAA

TAF EGCC 211054Z 2112/2218 16008KT CAVOK PROB40
TEMPO 2116/2124 VRB15G25KT 3000 +TSRAGS BKN040CB PROB30
TEMPO 2201/2207 7000
TEMPO 2207/2210 6000 RA BKN012
BECMG 2212/2215 24010KT


Example: see airport list